sensor_id;sensor_type;location;lat;lon;timestamp;P1;durP1;ratioP1;P2;durP2;ratioP2
47403;SDS011;33157;51.508;4.288;2024-01-06T00:04:20;21.58;;;10.18;;
47403;SDS011;33157;51.508;4.288;2024-01-06T00:09:21;18.40;;;10.10;;
47403;SDS011;33157;51.508;4.288;2024-01-06T00:14:21;22.10;;;11.70;;
47403;SDS011;33157;51.508;4.288;2024-01-06T00:19:21;19.67;;;10.52;;
47403;SDS011;33157;51.508;4.288;2024-01-06T00:24:22;21.00;;;10.45;;
47403;SDS011;33157;51.508;4.288;2024-01-06T00:29:22;21.40;;;11.60;;
47403;SDS011;33157;51.508;4.288;2024-01-06T00:34:22;19.38;;;10.23;;
47403;SDS011;33157;51.508;4.288;2024-01-06T00:39:23;17.53;;;10.17;;
47403;SDS011;33157;51.508;4.288;2024-01-06T00:44:23;19.27;;;10.30;;
47403;SDS011;33157;51.508;4.288;2024-01-06T00:49:24;17.95;;;8.85;;
47403;SDS011;33157;51.508;4.288;2024-01-06T00:54:24;15.37;;;9.47;;
47403;SDS011;33157;51.508;4.288;2024-01-06T00:59:24;18.63;;;9.02;;
47403;SDS011;33157;51.508;4.288;2024-01-06T01:04:25;15.48;;;8.50;;
47403;SDS011;33157;51.508;4.288;2024-01-06T01:09:26;13.77;;;8.20;;
47403;SDS011;33157;51.508;4.288;2024-01-06T01:14:26;14.52;;;7.57;;
47403;SDS011;33157;51.508;4.288;2024-01-06T01:19:27;16.85;;;7.28;;
47403;SDS011;33157;51.508;4.288;2024-01-06T01:24:27;13.35;;;6.75;;
47403;SDS011;33157;51.508;4.288;2024-01-06T01:29:27;12.63;;;7.18;;
47403;SDS011;33157;51.508;4.288;2024-01-06T01:34:28;13.13;;;6.47;;
47403;SDS011;33157;51.508;4.288;2024-01-06T01:39:28;15.35;;;6.97;;
47403;SDS011;33157;51.508;4.288;2024-01-06T01:44:29;11.93;;;7.03;;
47403;SDS011;33157;51.508;4.288;2024-01-06T01:49:29;15.43;;;7.47;;
47403;SDS011;33157;51.508;4.288;2024-01-06T01:54:29;14.70;;;7.32;;
47403;SDS011;33157;51.508;4.288;2024-01-06T01:59:30;13.82;;;7.00;;
47403;SDS011;33157;51.508;4.288;2024-01-06T02:04:30;15.65;;;8.13;;
47403;SDS011;33157;51.508;4.288;2024-01-06T02:09:31;16.42;;;8.55;;
47403;SDS011;33157;51.508;4.288;2024-01-06T02:14:31;17.35;;;8.45;;
47403;SDS011;33157;51.508;4.288;2024-01-06T02:19:32;16.95;;;8.73;;
47403;SDS011;33157;51.508;4.288;2024-01-06T02:24:33;20.27;;;8.95;;
47403;SDS011;33157;51.508;4.288;2024-01-06T02:29:33;17.80;;;8.73;;
47403;SDS011;33157;51.508;4.288;2024-01-06T02:34:33;13.07;;;6.82;;
47403;SDS011;33157;51.508;4.288;2024-01-06T02:39:34;13.40;;;7.18;;
47403;SDS011;33157;51.508;4.288;2024-01-06T02:44:35;12.30;;;7.30;;
47403;SDS011;33157;51.508;4.288;2024-01-06T02:49:35;13.10;;;6.72;;
47403;SDS011;33157;51.508;4.288;2024-01-06T02:54:35;10.13;;;4.07;;
47403;SDS011;33157;51.508;4.288;2024-01-06T02:59:36;11.53;;;3.93;;
47403;SDS011;33157;51.508;4.288;2024-01-06T03:04:36;6.25;;;2.90;;
47403;SDS011;33157;51.508;4.288;2024-01-06T03:09:36;11.57;;;3.15;;
47403;SDS011;33157;51.508;4.288;2024-01-06T03:14:38;9.75;;;2.95;;
47403;SDS011;33157;51.508;4.288;2024-01-06T03:19:39;8.15;;;3.08;;
47403;SDS011;33157;51.508;4.288;2024-01-06T03:24:39;7.20;;;4.50;;
47403;SDS011;33157;51.508;4.288;2024-01-06T03:29:40;7.65;;;4.25;;
47403;SDS011;33157;51.508;4.288;2024-01-06T03:34:41;7.10;;;3.72;;
47403;SDS011;33157;51.508;4.288;2024-01-06T03:39:41;7.80;;;2.60;;
47403;SDS011;33157;51.508;4.288;2024-01-06T03:44:42;4.72;;;2.35;;
47403;SDS011;33157;51.508;4.288;2024-01-06T03:49:42;5.10;;;2.35;;
47403;SDS011;33157;51.508;4.288;2024-01-06T03:54:43;8.38;;;2.88;;
47403;SDS011;33157;51.508;4.288;2024-01-06T03:59:43;8.05;;;3.80;;
47403;SDS011;33157;51.508;4.288;2024-01-06T04:04:44;6.83;;;2.87;;
47403;SDS011;33157;51.508;4.288;2024-01-06T04:09:44;7.40;;;2.30;;
47403;SDS011;33157;51.508;4.288;2024-01-06T04:14:44;4.90;;;2.22;;
47403;SDS011;33157;51.508;4.288;2024-01-06T04:19:45;7.40;;;2.80;;
47403;SDS011;33157;51.508;4.288;2024-01-06T04:24:45;6.67;;;2.63;;
47403;SDS011;33157;51.508;4.288;2024-01-06T04:29:46;5.95;;;2.50;;
47403;SDS011;33157;51.508;4.288;2024-01-06T04:34:46;8.32;;;3.28;;
47403;SDS011;33157;51.508;4.288;2024-01-06T04:39:49;6.07;;;3.63;;
47403;SDS011;33157;51.508;4.288;2024-01-06T04:44:50;6.47;;;3.58;;
47403;SDS011;33157;51.508;4.288;2024-01-06T04:49:50;10.32;;;4.28;;
47403;SDS011;33157;51.508;4.288;2024-01-06T04:54:51;13.40;;;5.07;;
47403;SDS011;33157;51.508;4.288;2024-01-06T04:59:51;9.97;;;5.47;;
47403;SDS011;33157;51.508;4.288;2024-01-06T05:04:51;10.85;;;5.15;;
47403;SDS011;33157;51.508;4.288;2024-01-06T05:09:52;14.20;;;5.25;;
47403;SDS011;33157;51.508;4.288;2024-01-06T05:14:53;13.95;;;5.50;;
47403;SDS011;33157;51.508;4.288;2024-01-06T05:19:53;11.00;;;5.25;;
47403;SDS011;33157;51.508;4.288;2024-01-06T05:24:54;10.13;;;6.03;;
47403;SDS011;33157;51.508;4.288;2024-01-06T05:29:54;10.23;;;6.00;;
47403;SDS011;33157;51.508;4.288;2024-01-06T05:34:54;10.98;;;5.78;;
47403;SDS011;33157;51.508;4.288;2024-01-06T05:39:55;17.05;;;7.28;;
47403;SDS011;33157;51.508;4.288;2024-01-06T05:44:55;8.93;;;6.25;;
47403;SDS011;33157;51.508;4.288;2024-01-06T05:49:56;13.45;;;6.32;;
47403;SDS011;33157;51.508;4.288;2024-01-06T05:54:56;10.63;;;5.35;;
47403;SDS011;33157;51.508;4.288;2024-01-06T05:59:59;10.40;;;6.05;;
47403;SDS011;33157;51.508;4.288;2024-01-06T06:04:59;14.43;;;6.60;;
47403;SDS011;33157;51.508;4.288;2024-01-06T06:10:00;12.32;;;5.97;;
47403;SDS011;33157;51.508;4.288;2024-01-06T06:15:03;10.98;;;5.25;;
47403;SDS011;33157;51.508;4.288;2024-01-06T06:20:05;8.17;;;5.20;;
47403;SDS011;33157;51.508;4.288;2024-01-06T06:25:06;5.97;;;4.22;;
47403;SDS011;33157;51.508;4.288;2024-01-06T06:30:08;9.10;;;4.68;;
47403;SDS011;33157;51.508;4.288;2024-01-06T06:35:09;7.43;;;4.93;;
47403;SDS011;33157;51.508;4.288;2024-01-06T06:40:09;9.23;;;5.05;;
47403;SDS011;33157;51.508;4.288;2024-01-06T06:45:10;9.40;;;5.00;;
47403;SDS011;33157;51.508;4.288;2024-01-06T06:50:13;12.40;;;4.47;;
47403;SDS011;33157;51.508;4.288;2024-01-06T06:55:13;8.88;;;4.28;;
47403;SDS011;33157;51.508;4.288;2024-01-06T07:00:14;8.38;;;5.07;;
47403;SDS011;33157;51.508;4.288;2024-01-06T07:05:16;8.45;;;5.45;;
47403;SDS011;33157;51.508;4.288;2024-01-06T07:10:17;9.68;;;5.55;;
47403;SDS011;33157;51.508;4.288;2024-01-06T07:15:18;8.77;;;5.13;;
47403;SDS011;33157;51.508;4.288;2024-01-06T07:20:18;11.10;;;4.97;;
47403;SDS011;33157;51.508;4.288;2024-01-06T07:25:19;9.60;;;4.78;;
47403;SDS011;33157;51.508;4.288;2024-01-06T07:30:20;7.50;;;4.78;;
47403;SDS011;33157;51.508;4.288;2024-01-06T07:35:20;11.55;;;4.82;;
47403;SDS011;33157;51.508;4.288;2024-01-06T07:40:21;8.07;;;4.70;;
47403;SDS011;33157;51.508;4.288;2024-01-06T07:45:23;10.88;;;5.00;;
47403;SDS011;33157;51.508;4.288;2024-01-06T07:50:23;8.63;;;5.65;;
47403;SDS011;33157;51.508;4.288;2024-01-06T07:55:24;8.90;;;5.75;;
47403;SDS011;33157;51.508;4.288;2024-01-06T08:00:26;11.93;;;6.70;;
47403;SDS011;33157;51.508;4.288;2024-01-06T08:05:26;11.73;;;7.20;;
47403;SDS011;33157;51.508;4.288;2024-01-06T08:10:27;11.98;;;7.32;;
47403;SDS011;33157;51.508;4.288;2024-01-06T08:15:27;11.15;;;6.95;;
47403;SDS011;33157;51.508;4.288;2024-01-06T08:20:28;8.95;;;6.53;;
47403;SDS011;33157;51.508;4.288;2024-01-06T08:25:28;12.60;;;7.22;;
47403;SDS011;33157;51.508;4.288;2024-01-06T08:30:28;11.93;;;7.40;;
47403;SDS011;33157;51.508;4.288;2024-01-06T08:35:29;12.85;;;6.85;;
47403;SDS011;33157;51.508;4.288;2024-01-06T08:40:30;10.30;;;6.97;;
47403;SDS011;33157;51.508;4.288;2024-01-06T08:45:30;8.80;;;5.03;;
47403;SDS011;33157;51.508;4.288;2024-01-06T08:50:31;8.03;;;4.73;;
47403;SDS011;33157;51.508;4.288;2024-01-06T08:55:31;8.68;;;3.90;;
47403;SDS011;33157;51.508;4.288;2024-01-06T09:00:31;7.50;;;4.60;;
47403;SDS011;33157;51.508;4.288;2024-01-06T09:05:32;11.38;;;4.75;;
47403;SDS011;33157;51.508;4.288;2024-01-06T09:10:34;6.57;;;4.28;;
47403;SDS011;33157;51.508;4.288;2024-01-06T09:15:34;10.68;;;4.45;;
47403;SDS011;33157;51.508;4.288;2024-01-06T09:20:34;6.10;;;3.63;;
47403;SDS011;33157;51.508;4.288;2024-01-06T09:25:35;7.82;;;4.70;;
47403;SDS011;33157;51.508;4.288;2024-01-06T09:30:35;5.53;;;3.40;;
47403;SDS011;33157;51.508;4.288;2024-01-06T09:35:37;6.00;;;3.20;;
47403;SDS011;33157;51.508;4.288;2024-01-06T09:40:41;6.28;;;2.67;;
47403;SDS011;33157;51.508;4.288;2024-01-06T09:45:43;6.63;;;2.40;;
47403;SDS011;33157;51.508;4.288;2024-01-06T09:50:46;7.75;;;2.80;;
47403;SDS011;33157;51.508;4.288;2024-01-06T09:55:48;5.97;;;2.70;;
47403;SDS011;33157;51.508;4.288;2024-01-06T10:00:52;4.80;;;2.60;;
47403;SDS011;33157;51.508;4.288;2024-01-06T10:05:52;9.57;;;5.35;;
47403;SDS011;33157;51.508;4.288;2024-01-06T10:10:53;4.28;;;2.50;;
47403;SDS011;33157;51.508;4.288;2024-01-06T10:15:53;5.95;;;2.53;;
47403;SDS011;33157;51.508;4.288;2024-01-06T10:20:54;5.72;;;2.80;;
47403;SDS011;33157;51.508;4.288;2024-01-06T10:25:55;6.30;;;2.10;;
47403;SDS011;33157;51.508;4.288;2024-01-06T10:30:56;5.28;;;2.15;;
47403;SDS011;33157;51.508;4.288;2024-01-06T10:35:57;2.95;;;1.98;;
47403;SDS011;33157;51.508;4.288;2024-01-06T10:41:03;3.78;;;2.15;;
47403;SDS011;33157;51.508;4.288;2024-01-06T10:46:11;3.08;;;1.77;;
47403;SDS011;33157;51.508;4.288;2024-01-06T10:51:13;2.85;;;1.70;;
47403;SDS011;33157;51.508;4.288;2024-01-06T10:56:15;3.97;;;1.60;;
47403;SDS011;33157;51.508;4.288;2024-01-06T11:01:19;5.30;;;1.10;;
47403;SDS011;33157;51.508;4.288;2024-01-06T11:06:21;2.65;;;0.90;;
47403;SDS011;33157;51.508;4.288;2024-01-06T11:11:22;4.13;;;0.95;;
47403;SDS011;33157;51.508;4.288;2024-01-06T11:16:33;1.73;;;0.85;;
47403;SDS011;33157;51.508;4.288;2024-01-06T11:21:34;1.90;;;0.90;;
47403;SDS011;33157;51.508;4.288;2024-01-06T11:26:38;2.00;;;1.10;;
47403;SDS011;33157;51.508;4.288;2024-01-06T11:31:39;3.47;;;1.20;;
47403;SDS011;33157;51.508;4.288;2024-01-06T11:36:39;2.65;;;1.35;;
47403;SDS011;33157;51.508;4.288;2024-01-06T11:41:48;1.27;;;0.90;;
47403;SDS011;33157;51.508;4.288;2024-01-06T11:46:50;3.55;;;1.45;;
47403;SDS011;33157;51.508;4.288;2024-01-06T11:51:51;4.93;;;1.43;;
47403;SDS011;33157;51.508;4.288;2024-01-06T11:56:53;2.93;;;1.83;;
47403;SDS011;33157;51.508;4.288;2024-01-06T12:01:54;3.47;;;1.98;;
47403;SDS011;33157;51.508;4.288;2024-01-06T12:07:04;3.38;;;1.67;;
47403;SDS011;33157;51.508;4.288;2024-01-06T12:12:06;3.63;;;1.93;;
47403;SDS011;33157;51.508;4.288;2024-01-06T12:17:07;6.68;;;1.83;;
47403;SDS011;33157;51.508;4.288;2024-01-06T12:22:09;4.13;;;1.73;;
47403;SDS011;33157;51.508;4.288;2024-01-06T12:27:12;8.32;;;1.48;;
47403;SDS011;33157;51.508;4.288;2024-01-06T12:32:13;2.80;;;1.50;;
47403;SDS011;33157;51.508;4.288;2024-01-06T12:37:15;1.95;;;1.30;;
47403;SDS011;33157;51.508;4.288;2024-01-06T12:42:17;12.27;;;1.58;;
47403;SDS011;33157;51.508;4.288;2024-01-06T12:47:17;2.47;;;1.38;;
47403;SDS011;33157;51.508;4.288;2024-01-06T12:52:18;2.75;;;1.30;;
47403;SDS011;33157;51.508;4.288;2024-01-06T12:57:19;3.92;;;1.60;;
47403;SDS011;33157;51.508;4.288;2024-01-06T13:02:19;3.13;;;1.60;;
47403;SDS011;33157;51.508;4.288;2024-01-06T13:07:21;4.93;;;1.38;;
47403;SDS011;33157;51.508;4.288;2024-01-06T13:12:22;3.10;;;1.77;;
47403;SDS011;33157;51.508;4.288;2024-01-06T13:17:23;3.00;;;1.70;;
47403;SDS011;33157;51.508;4.288;2024-01-06T13:22:24;3.63;;;1.55;;
47403;SDS011;33157;51.508;4.288;2024-01-06T13:27:27;5.10;;;1.77;;
47403;SDS011;33157;51.508;4.288;2024-01-06T13:32:31;3.85;;;1.83;;
47403;SDS011;33157;51.508;4.288;2024-01-06T13:37:32;4.43;;;2.28;;
47403;SDS011;33157;51.508;4.288;2024-01-06T13:42:33;6.30;;;1.80;;
47403;SDS011;33157;51.508;4.288;2024-01-06T13:47:33;4.72;;;1.88;;
47403;SDS011;33157;51.508;4.288;2024-01-06T13:52:33;3.17;;;1.42;;
47403;SDS011;33157;51.508;4.288;2024-01-06T13:57:34;3.05;;;1.30;;
47403;SDS011;33157;51.508;4.288;2024-01-06T14:02:37;2.03;;;1.30;;
47403;SDS011;33157;51.508;4.288;2024-01-06T14:07:38;2.78;;;1.02;;
47403;SDS011;33157;51.508;4.288;2024-01-06T14:12:40;2.10;;;1.00;;
47403;SDS011;33157;51.508;4.288;2024-01-06T14:17:40;1.25;;;0.73;;
47403;SDS011;33157;51.508;4.288;2024-01-06T14:22:41;1.83;;;0.95;;
47403;SDS011;33157;51.508;4.288;2024-01-06T14:27:41;3.03;;;1.40;;
47403;SDS011;33157;51.508;4.288;2024-01-06T14:32:42;5.93;;;1.10;;
47403;SDS011;33157;51.508;4.288;2024-01-06T14:37:42;3.60;;;1.05;;
47403;SDS011;33157;51.508;4.288;2024-01-06T14:42:44;2.88;;;1.00;;
47403;SDS011;33157;51.508;4.288;2024-01-06T14:47:45;1.88;;;0.93;;
47403;SDS011;33157;51.508;4.288;2024-01-06T14:52:45;2.90;;;1.20;;
47403;SDS011;33157;51.508;4.288;2024-01-06T14:57:46;2.83;;;1.38;;
47403;SDS011;33157;51.508;4.288;2024-01-06T15:02:46;6.03;;;1.13;;
47403;SDS011;33157;51.508;4.288;2024-01-06T15:07:46;5.45;;;1.65;;
47403;SDS011;33157;51.508;4.288;2024-01-06T15:12:47;4.33;;;1.67;;
47403;SDS011;33157;51.508;4.288;2024-01-06T15:17:48;2.28;;;1.17;;
47403;SDS011;33157;51.508;4.288;2024-01-06T15:22:48;2.63;;;1.15;;
47403;SDS011;33157;51.508;4.288;2024-01-06T15:27:48;3.15;;;0.95;;
47403;SDS011;33157;51.508;4.288;2024-01-06T15:32:49;2.25;;;1.20;;
47403;SDS011;33157;51.508;4.288;2024-01-06T15:37:49;2.47;;;1.40;;
47403;SDS011;33157;51.508;4.288;2024-01-06T15:42:50;4.35;;;1.13;;
47403;SDS011;33157;51.508;4.288;2024-01-06T15:47:50;3.08;;;1.58;;
47403;SDS011;33157;51.508;4.288;2024-01-06T15:52:53;2.70;;;1.27;;
47403;SDS011;33157;51.508;4.288;2024-01-06T15:57:54;2.20;;;1.40;;
47403;SDS011;33157;51.508;4.288;2024-01-06T16:02:54;2.97;;;1.30;;
47403;SDS011;33157;51.508;4.288;2024-01-06T16:07:55;2.88;;;0.93;;
47403;SDS011;33157;51.508;4.288;2024-01-06T16:12:56;3.03;;;1.77;;
47403;SDS011;33157;51.508;4.288;2024-01-06T16:18:02;2.72;;;1.33;;
47403;SDS011;33157;51.508;4.288;2024-01-06T16:23:03;5.28;;;2.13;;
47403;SDS011;33157;51.508;4.288;2024-01-06T16:28:04;4.35;;;1.95;;
47403;SDS011;33157;51.508;4.288;2024-01-06T16:33:04;6.18;;;2.28;;
47403;SDS011;33157;51.508;4.288;2024-01-06T16:38:06;5.82;;;1.85;;
47403;SDS011;33157;51.508;4.288;2024-01-06T16:43:07;3.70;;;1.75;;
47403;SDS011;33157;51.508;4.288;2024-01-06T16:48:07;3.22;;;1.30;;
47403;SDS011;33157;51.508;4.288;2024-01-06T16:53:07;3.00;;;1.48;;
47403;SDS011;33157;51.508;4.288;2024-01-06T16:58:08;3.88;;;1.40;;
47403;SDS011;33157;51.508;4.288;2024-01-06T17:03:08;3.17;;;1.40;;
47403;SDS011;33157;51.508;4.288;2024-01-06T17:08:09;2.05;;;1.33;;
47403;SDS011;33157;51.508;4.288;2024-01-06T17:13:09;4.13;;;1.70;;
47403;SDS011;33157;51.508;4.288;2024-01-06T17:18:09;5.32;;;2.00;;
47403;SDS011;33157;51.508;4.288;2024-01-06T17:23:10;5.07;;;2.40;;
47403;SDS011;33157;51.508;4.288;2024-01-06T17:28:11;4.85;;;2.40;;
47403;SDS011;33157;51.508;4.288;2024-01-06T17:33:12;5.10;;;2.80;;
47403;SDS011;33157;51.508;4.288;2024-01-06T17:38:13;6.03;;;2.25;;
47403;SDS011;33157;51.508;4.288;2024-01-06T17:43:14;4.20;;;2.72;;
47403;SDS011;33157;51.508;4.288;2024-01-06T17:48:14;6.50;;;2.17;;
47403;SDS011;33157;51.508;4.288;2024-01-06T17:53:15;7.60;;;2.30;;
47403;SDS011;33157;51.508;4.288;2024-01-06T17:58:15;8.30;;;2.60;;
47403;SDS011;33157;51.508;4.288;2024-01-06T18:03:16;6.07;;;2.97;;
47403;SDS011;33157;51.508;4.288;2024-01-06T18:08:16;9.77;;;4.25;;
47403;SDS011;33157;51.508;4.288;2024-01-06T18:13:17;6.75;;;3.95;;
47403;SDS011;33157;51.508;4.288;2024-01-06T18:18:18;8.43;;;3.80;;
47403;SDS011;33157;51.508;4.288;2024-01-06T18:23:19;9.82;;;3.83;;
47403;SDS011;33157;51.508;4.288;2024-01-06T18:28:19;7.32;;;3.42;;
47403;SDS011;33157;51.508;4.288;2024-01-06T18:33:23;6.78;;;3.45;;
47403;SDS011;33157;51.508;4.288;2024-01-06T18:38:24;8.52;;;4.13;;
47403;SDS011;33157;51.508;4.288;2024-01-06T18:43:24;9.52;;;4.78;;
47403;SDS011;33157;51.508;4.288;2024-01-06T18:48:25;8.65;;;4.25;;
47403;SDS011;33157;51.508;4.288;2024-01-06T18:53:25;7.15;;;3.80;;
47403;SDS011;33157;51.508;4.288;2024-01-06T19:03:28;7.75;;;4.65;;
47403;SDS011;33157;51.508;4.288;2024-01-06T19:08:28;6.70;;;4.43;;
47403;SDS011;33157;51.508;4.288;2024-01-06T19:13:29;7.97;;;5.15;;
47403;SDS011;33157;51.508;4.288;2024-01-06T19:18:29;11.32;;;5.60;;
47403;SDS011;33157;51.508;4.288;2024-01-06T19:23:30;8.70;;;5.25;;
47403;SDS011;33157;51.508;4.288;2024-01-06T19:28:30;9.05;;;5.13;;
47403;SDS011;33157;51.508;4.288;2024-01-06T19:33:31;7.57;;;5.47;;
47403;SDS011;33157;51.508;4.288;2024-01-06T19:38:31;11.35;;;5.38;;
47403;SDS011;33157;51.508;4.288;2024-01-06T19:43:31;16.40;;;6.10;;
47403;SDS011;33157;51.508;4.288;2024-01-06T19:48:32;8.02;;;5.25;;
47403;SDS011;33157;51.508;4.288;2024-01-06T19:53:32;9.55;;;5.70;;
47403;SDS011;33157;51.508;4.288;2024-01-06T19:58:32;10.70;;;5.28;;
47403;SDS011;33157;51.508;4.288;2024-01-06T20:03:33;11.20;;;5.40;;
47403;SDS011;33157;51.508;4.288;2024-01-06T20:08:34;9.30;;;5.97;;
47403;SDS011;33157;51.508;4.288;2024-01-06T20:13:35;7.95;;;5.38;;
47403;SDS011;33157;51.508;4.288;2024-01-06T20:18:35;9.75;;;6.20;;
47403;SDS011;33157;51.508;4.288;2024-01-06T20:23:36;10.50;;;6.72;;
47403;SDS011;33157;51.508;4.288;2024-01-06T20:28:37;11.00;;;6.38;;
47403;SDS011;33157;51.508;4.288;2024-01-06T20:33:37;9.70;;;5.85;;
47403;SDS011;33157;51.508;4.288;2024-01-06T20:38:38;9.82;;;6.28;;
47403;SDS011;33157;51.508;4.288;2024-01-06T20:43:39;9.82;;;5.75;;
47403;SDS011;33157;51.508;4.288;2024-01-06T20:48:39;8.02;;;5.75;;
47403;SDS011;33157;51.508;4.288;2024-01-06T20:53:43;11.30;;;6.20;;
47403;SDS011;33157;51.508;4.288;2024-01-06T20:58:47;10.73;;;6.30;;
47403;SDS011;33157;51.508;4.288;2024-01-06T21:03:48;9.38;;;6.40;;
47403;SDS011;33157;51.508;4.288;2024-01-06T21:08:51;8.13;;;5.55;;
47403;SDS011;33157;51.508;4.288;2024-01-06T21:13:52;8.40;;;5.47;;
47403;SDS011;33157;51.508;4.288;2024-01-06T21:18:52;8.93;;;5.82;;
47403;SDS011;33157;51.508;4.288;2024-01-06T21:23:53;8.45;;;5.38;;
47403;SDS011;33157;51.508;4.288;2024-01-06T21:28:53;10.30;;;5.13;;
47403;SDS011;33157;51.508;4.288;2024-01-06T21:33:53;6.68;;;4.75;;
47403;SDS011;33157;51.508;4.288;2024-01-06T21:38:54;7.70;;;4.60;;
47403;SDS011;33157;51.508;4.288;2024-01-06T21:43:55;9.23;;;5.68;;
47403;SDS011;33157;51.508;4.288;2024-01-06T21:48:56;5.95;;;4.22;;
47403;SDS011;33157;51.508;4.288;2024-01-06T21:53:56;7.43;;;4.00;;
47403;SDS011;33157;51.508;4.288;2024-01-06T21:58:57;5.88;;;4.07;;
47403;SDS011;33157;51.508;4.288;2024-01-06T22:03:57;7.82;;;4.57;;
47403;SDS011;33157;51.508;4.288;2024-01-06T22:08:59;6.30;;;4.43;;
47403;SDS011;33157;51.508;4.288;2024-01-06T22:14:00;7.30;;;4.65;;
47403;SDS011;33157;51.508;4.288;2024-01-06T22:19:00;7.45;;;3.95;;
47403;SDS011;33157;51.508;4.288;2024-01-06T22:24:00;7.00;;;4.32;;
47403;SDS011;33157;51.508;4.288;2024-01-06T22:29:01;7.45;;;5.20;;
47403;SDS011;33157;51.508;4.288;2024-01-06T22:34:03;8.00;;;5.43;;
47403;SDS011;33157;51.508;4.288;2024-01-06T22:39:04;5.82;;;3.38;;
47403;SDS011;33157;51.508;4.288;2024-01-06T22:44:04;9.00;;;3.83;;
47403;SDS011;33157;51.508;4.288;2024-01-06T22:49:04;5.75;;;3.33;;
47403;SDS011;33157;51.508;4.288;2024-01-06T22:54:05;4.85;;;2.97;;
47403;SDS011;33157;51.508;4.288;2024-01-06T22:59:05;5.72;;;3.42;;
47403;SDS011;33157;51.508;4.288;2024-01-06T23:04:06;6.85;;;3.78;;
47403;SDS011;33157;51.508;4.288;2024-01-06T23:09:06;6.65;;;4.10;;
47403;SDS011;33157;51.508;4.288;2024-01-06T23:14:07;6.75;;;4.40;;
47403;SDS011;33157;51.508;4.288;2024-01-06T23:19:08;6.65;;;4.07;;
47403;SDS011;33157;51.508;4.288;2024-01-06T23:24:08;6.88;;;4.05;;
47403;SDS011;33157;51.508;4.288;2024-01-06T23:29:09;7.65;;;4.40;;
47403;SDS011;33157;51.508;4.288;2024-01-06T23:34:09;6.05;;;4.07;;
47403;SDS011;33157;51.508;4.288;2024-01-06T23:39:09;7.85;;;4.22;;
47403;SDS011;33157;51.508;4.288;2024-01-06T23:44:10;6.13;;;3.95;;
47403;SDS011;33157;51.508;4.288;2024-01-06T23:49:12;6.65;;;4.28;;
47403;SDS011;33157;51.508;4.288;2024-01-06T23:54:13;7.55;;;4.60;;
47403;SDS011;33157;51.508;4.288;2024-01-06T23:59:13;6.85;;;4.38;;
